sensor_id;sensor_type;location;lat;lon;timestamp;P1;durP1;ratioP1;P2;durP2;ratioP2
33553;SDS011;19885;42.208;24.952;2023-03-21T00:01:05;11.37;;;7.40;;
33553;SDS011;19885;42.208;24.952;2023-03-21T00:03:31;13.20;;;7.40;;
33553;SDS011;19885;42.208;24.952;2023-03-21T00:05:58;11.10;;;6.40;;
33553;SDS011;19885;42.208;24.952;2023-03-21T00:08:29;11.77;;;7.27;;
33553;SDS011;19885;42.208;24.952;2023-03-21T00:10:58;9.23;;;6.33;;
33553;SDS011;19885;42.208;24.952;2023-03-21T00:13:26;11.87;;;7.90;;
33553;SDS011;19885;42.208;24.952;2023-03-21T00:15:56;11.43;;;7.30;;
33553;SDS011;19885;42.208;24.952;2023-03-21T00:18:28;17.97;;;8.70;;
33553;SDS011;19885;42.208;24.952;2023-03-21T00:20:57;15.17;;;8.63;;
33553;SDS011;19885;42.208;24.952;2023-03-21T00:23:27;15.37;;;9.27;;
33553;SDS011;19885;42.208;24.952;2023-03-21T00:25:54;25.43;;;9.53;;
33553;SDS011;19885;42.208;24.952;2023-03-21T00:28:20;17.93;;;8.67;;
33553;SDS011;19885;42.208;24.952;2023-03-21T00:30:46;13.67;;;9.23;;
33553;SDS011;19885;42.208;24.952;2023-03-21T00:33:13;21.17;;;9.03;;
33553;SDS011;19885;42.208;24.952;2023-03-21T00:35:39;13.20;;;8.33;;
33553;SDS011;19885;42.208;24.952;2023-03-21T00:38:12;18.23;;;10.43;;
33553;SDS011;19885;42.208;24.952;2023-03-21T00:40:39;19.03;;;8.87;;
33553;SDS011;19885;42.208;24.952;2023-03-21T00:43:05;18.60;;;10.00;;
33553;SDS011;19885;42.208;24.952;2023-03-21T00:45:31;13.33;;;9.03;;
33553;SDS011;19885;42.208;24.952;2023-03-21T00:47:58;16.50;;;9.13;;
33553;SDS011;19885;42.208;24.952;2023-03-21T00:50:24;13.90;;;8.17;;
33553;SDS011;19885;42.208;24.952;2023-03-21T00:52:50;15.00;;;9.40;;
33553;SDS011;19885;42.208;24.952;2023-03-21T00:55:17;14.80;;;9.10;;
33553;SDS011;19885;42.208;24.952;2023-03-21T00:57:43;17.20;;;9.20;;
33553;SDS011;19885;42.208;24.952;2023-03-21T01:00:09;22.57;;;9.83;;
33553;SDS011;19885;42.208;24.952;2023-03-21T01:02:38;14.57;;;8.83;;
33553;SDS011;19885;42.208;24.952;2023-03-21T01:05:21;16.60;;;8.67;;
33553;SDS011;19885;42.208;24.952;2023-03-21T01:08:08;15.23;;;9.45;;
33553;SDS011;19885;42.208;24.952;2023-03-21T01:10:36;15.73;;;8.80;;
33553;SDS011;19885;42.208;24.952;2023-03-21T01:13:06;18.33;;;9.07;;
33553;SDS011;19885;42.208;24.952;2023-03-21T01:15:34;12.97;;;7.63;;
33553;SDS011;19885;42.208;24.952;2023-03-21T01:18:01;19.70;;;9.03;;
33553;SDS011;19885;42.208;24.952;2023-03-21T01:20:28;16.40;;;8.23;;
33553;SDS011;19885;42.208;24.952;2023-03-21T01:22:53;16.83;;;8.93;;
33553;SDS011;19885;42.208;24.952;2023-03-21T01:25:19;14.20;;;8.87;;
33553;SDS011;19885;42.208;24.952;2023-03-21T01:27:45;14.63;;;8.83;;
33553;SDS011;19885;42.208;24.952;2023-03-21T01:30:11;11.50;;;7.63;;
33553;SDS011;19885;42.208;24.952;2023-03-21T01:32:36;15.00;;;8.83;;
33553;SDS011;19885;42.208;24.952;2023-03-21T01:35:02;13.50;;;8.00;;
33553;SDS011;19885;42.208;24.952;2023-03-21T01:37:28;13.90;;;8.90;;
33553;SDS011;19885;42.208;24.952;2023-03-21T01:39:53;26.17;;;9.90;;
33553;SDS011;19885;42.208;24.952;2023-03-21T01:42:19;18.23;;;8.73;;
33553;SDS011;19885;42.208;24.952;2023-03-21T01:44:58;14.20;;;9.27;;
33553;SDS011;19885;42.208;24.952;2023-03-21T01:47:26;13.83;;;10.03;;
33553;SDS011;19885;42.208;24.952;2023-03-21T01:49:52;21.20;;;10.43;;
33553;SDS011;19885;42.208;24.952;2023-03-21T01:52:26;16.03;;;9.47;;
33553;SDS011;19885;42.208;24.952;2023-03-21T01:54:56;14.63;;;9.47;;
33553;SDS011;19885;42.208;24.952;2023-03-21T01:57:32;17.37;;;9.00;;
33553;SDS011;19885;42.208;24.952;2023-03-21T02:00:05;18.50;;;9.97;;
33553;SDS011;19885;42.208;24.952;2023-03-21T02:02:36;17.90;;;10.07;;
33553;SDS011;19885;42.208;24.952;2023-03-21T02:05:16;22.37;;;11.67;;
33553;SDS011;19885;42.208;24.952;2023-03-21T02:07:44;21.03;;;10.47;;
33553;SDS011;19885;42.208;24.952;2023-03-21T02:10:11;15.57;;;9.53;;
33553;SDS011;19885;42.208;24.952;2023-03-21T02:12:39;26.27;;;10.33;;
33553;SDS011;19885;42.208;24.952;2023-03-21T02:15:05;23.27;;;11.73;;
33553;SDS011;19885;42.208;24.952;2023-03-21T02:17:34;20.20;;;10.77;;
33553;SDS011;19885;42.208;24.952;2023-03-21T02:28:15;16.43;;;9.07;;
33553;SDS011;19885;42.208;24.952;2023-03-21T02:37:04;20.30;;;10.17;;
33553;SDS011;19885;42.208;24.952;2023-03-21T02:45:44;23.10;;;10.53;;
33553;SDS011;19885;42.208;24.952;2023-03-21T02:47:41;21.40;;;10.80;;
33553;SDS011;19885;42.208;24.952;2023-03-21T02:50:37;28.77;;;10.60;;
33553;SDS011;19885;42.208;24.952;2023-03-21T02:53:12;20.40;;;10.97;;
33553;SDS011;19885;42.208;24.952;2023-03-21T02:55:41;18.63;;;10.93;;
33553;SDS011;19885;42.208;24.952;2023-03-21T02:58:12;17.07;;;9.97;;
33553;SDS011;19885;42.208;24.952;2023-03-21T03:00:41;16.93;;;10.93;;
33553;SDS011;19885;42.208;24.952;2023-03-21T03:03:09;21.37;;;12.07;;
33553;SDS011;19885;42.208;24.952;2023-03-21T03:05:38;20.40;;;11.80;;
33553;SDS011;19885;42.208;24.952;2023-03-21T03:08:20;19.07;;;10.43;;
33553;SDS011;19885;42.208;24.952;2023-03-21T03:10:55;17.00;;;10.70;;
33553;SDS011;19885;42.208;24.952;2023-03-21T03:18:52;27.07;;;11.63;;
33553;SDS011;19885;42.208;24.952;2023-03-21T03:29:22;26.73;;;11.37;;
33553;SDS011;19885;42.208;24.952;2023-03-21T03:31:54;22.60;;;10.73;;
33553;SDS011;19885;42.208;24.952;2023-03-21T03:34:26;20.87;;;11.40;;
33553;SDS011;19885;42.208;24.952;2023-03-21T03:36:58;20.47;;;10.50;;
33553;SDS011;19885;42.208;24.952;2023-03-21T03:40:03;20.17;;;10.80;;
33553;SDS011;19885;42.208;24.952;2023-03-21T03:42:48;18.03;;;10.20;;
33553;SDS011;19885;42.208;24.952;2023-03-21T03:45:16;16.83;;;11.17;;
33553;SDS011;19885;42.208;24.952;2023-03-21T03:51:00;15.87;;;9.67;;
33553;SDS011;19885;42.208;24.952;2023-03-21T03:56:09;21.60;;;11.50;;
33553;SDS011;19885;42.208;24.952;2023-03-21T03:58:36;19.67;;;9.47;;
33553;SDS011;19885;42.208;24.952;2023-03-21T04:01:06;16.83;;;10.03;;
33553;SDS011;19885;42.208;24.952;2023-03-21T04:03:32;20.43;;;11.10;;
33553;SDS011;19885;42.208;24.952;2023-03-21T04:05:59;16.73;;;10.73;;
33553;SDS011;19885;42.208;24.952;2023-03-21T04:08:25;21.20;;;9.83;;
33553;SDS011;19885;42.208;24.952;2023-03-21T04:10:50;18.77;;;9.80;;
33553;SDS011;19885;42.208;24.952;2023-03-21T04:13:16;21.87;;;9.43;;
33553;SDS011;19885;42.208;24.952;2023-03-21T04:15:42;20.87;;;11.63;;
33553;SDS011;19885;42.208;24.952;2023-03-21T04:18:08;15.53;;;9.83;;
33553;SDS011;19885;42.208;24.952;2023-03-21T04:20:34;22.60;;;10.63;;
33553;SDS011;19885;42.208;24.952;2023-03-21T04:22:59;21.70;;;9.97;;
33553;SDS011;19885;42.208;24.952;2023-03-21T04:25:25;15.53;;;9.00;;
33553;SDS011;19885;42.208;24.952;2023-03-21T04:27:52;23.97;;;11.73;;
33553;SDS011;19885;42.208;24.952;2023-03-21T04:30:19;24.23;;;11.10;;
33553;SDS011;19885;42.208;24.952;2023-03-21T04:32:45;20.70;;;10.63;;
33553;SDS011;19885;42.208;24.952;2023-03-21T04:35:18;24.40;;;10.73;;
33553;SDS011;19885;42.208;24.952;2023-03-21T04:37:44;22.87;;;11.13;;
33553;SDS011;19885;42.208;24.952;2023-03-21T04:40:10;25.77;;;11.70;;
33553;SDS011;19885;42.208;24.952;2023-03-21T04:42:42;20.77;;;11.73;;
33553;SDS011;19885;42.208;24.952;2023-03-21T04:45:09;19.37;;;11.20;;
33553;SDS011;19885;42.208;24.952;2023-03-21T04:47:35;26.67;;;11.93;;
33553;SDS011;19885;42.208;24.952;2023-03-21T04:50:00;29.33;;;12.20;;
33553;SDS011;19885;42.208;24.952;2023-03-21T04:52:26;23.63;;;11.00;;
33553;SDS011;19885;42.208;24.952;2023-03-21T04:54:52;22.97;;;11.40;;
33553;SDS011;19885;42.208;24.952;2023-03-21T04:57:17;19.60;;;10.67;;
33553;SDS011;19885;42.208;24.952;2023-03-21T04:59:43;21.70;;;12.10;;
33553;SDS011;19885;42.208;24.952;2023-03-21T05:02:09;27.33;;;14.00;;
33553;SDS011;19885;42.208;24.952;2023-03-21T05:04:34;21.27;;;12.93;;
33553;SDS011;19885;42.208;24.952;2023-03-21T05:07:00;17.33;;;10.70;;
33553;SDS011;19885;42.208;24.952;2023-03-21T05:09:25;19.53;;;11.10;;
33553;SDS011;19885;42.208;24.952;2023-03-21T05:11:51;21.27;;;11.67;;
33553;SDS011;19885;42.208;24.952;2023-03-21T05:14:19;15.73;;;10.57;;
33553;SDS011;19885;42.208;24.952;2023-03-21T05:16:46;17.70;;;10.90;;
33553;SDS011;19885;42.208;24.952;2023-03-21T05:19:17;27.97;;;11.73;;
33553;SDS011;19885;42.208;24.952;2023-03-21T05:21:44;16.70;;;9.97;;
33553;SDS011;19885;42.208;24.952;2023-03-21T05:24:14;26.17;;;12.73;;
33553;SDS011;19885;42.208;24.952;2023-03-21T05:26:44;17.57;;;10.90;;
33553;SDS011;19885;42.208;24.952;2023-03-21T05:29:15;20.20;;;10.80;;
33553;SDS011;19885;42.208;24.952;2023-03-21T05:31:42;23.20;;;12.00;;
33553;SDS011;19885;42.208;24.952;2023-03-21T05:34:09;24.73;;;11.13;;
33553;SDS011;19885;42.208;24.952;2023-03-21T05:36:35;23.47;;;10.07;;
33553;SDS011;19885;42.208;24.952;2023-03-21T05:39:01;36.07;;;12.63;;
33553;SDS011;19885;42.208;24.952;2023-03-21T05:41:27;25.40;;;12.23;;
33553;SDS011;19885;42.208;24.952;2023-03-21T05:43:53;17.57;;;10.60;;
33553;SDS011;19885;42.208;24.952;2023-03-21T05:46:18;19.47;;;11.97;;
33553;SDS011;19885;42.208;24.952;2023-03-21T05:48:44;32.50;;;13.80;;
33553;SDS011;19885;42.208;24.952;2023-03-21T05:51:09;26.73;;;11.57;;
33553;SDS011;19885;42.208;24.952;2023-03-21T05:53:35;23.47;;;11.83;;
33553;SDS011;19885;42.208;24.952;2023-03-21T05:56:01;31.27;;;12.07;;
33553;SDS011;19885;42.208;24.952;2023-03-21T05:58:26;23.60;;;12.23;;
33553;SDS011;19885;42.208;24.952;2023-03-21T06:01:01;16.53;;;10.57;;
33553;SDS011;19885;42.208;24.952;2023-03-21T06:03:26;18.23;;;11.13;;
33553;SDS011;19885;42.208;24.952;2023-03-21T06:05:54;23.33;;;10.77;;
33553;SDS011;19885;42.208;24.952;2023-03-21T06:08:20;16.87;;;10.57;;
33553;SDS011;19885;42.208;24.952;2023-03-21T06:10:48;27.27;;;11.93;;
33553;SDS011;19885;42.208;24.952;2023-03-21T06:13:14;24.47;;;10.43;;
33553;SDS011;19885;42.208;24.952;2023-03-21T06:15:40;29.70;;;10.97;;
33553;SDS011;19885;42.208;24.952;2023-03-21T06:18:06;23.40;;;11.33;;
33553;SDS011;19885;42.208;24.952;2023-03-21T06:20:31;24.83;;;10.03;;
33553;SDS011;19885;42.208;24.952;2023-03-21T06:22:57;20.83;;;11.27;;
33553;SDS011;19885;42.208;24.952;2023-03-21T06:25:22;27.77;;;11.97;;
33553;SDS011;19885;42.208;24.952;2023-03-21T06:27:48;26.97;;;11.50;;
33553;SDS011;19885;42.208;24.952;2023-03-21T06:30:13;24.53;;;12.80;;
33553;SDS011;19885;42.208;24.952;2023-03-21T06:32:39;24.13;;;13.43;;
33553;SDS011;19885;42.208;24.952;2023-03-21T06:35:05;18.67;;;11.30;;
33553;SDS011;19885;42.208;24.952;2023-03-21T06:37:31;21.10;;;11.47;;
33553;SDS011;19885;42.208;24.952;2023-03-21T06:39:56;35.90;;;17.60;;
33553;SDS011;19885;42.208;24.952;2023-03-21T06:42:22;23.73;;;11.63;;
33553;SDS011;19885;42.208;24.952;2023-03-21T06:44:47;20.83;;;13.27;;
33553;SDS011;19885;42.208;24.952;2023-03-21T06:47:13;25.93;;;12.20;;
33553;SDS011;19885;42.208;24.952;2023-03-21T06:49:38;19.03;;;12.07;;
33553;SDS011;19885;42.208;24.952;2023-03-21T06:52:05;26.20;;;12.97;;
33553;SDS011;19885;42.208;24.952;2023-03-21T06:54:30;33.07;;;13.00;;
33553;SDS011;19885;42.208;24.952;2023-03-21T06:56:55;28.33;;;12.43;;
33553;SDS011;19885;42.208;24.952;2023-03-21T06:59:21;24.33;;;13.33;;
33553;SDS011;19885;42.208;24.952;2023-03-21T07:01:46;25.37;;;13.20;;
33553;SDS011;19885;42.208;24.952;2023-03-21T07:04:12;27.37;;;13.47;;
33553;SDS011;19885;42.208;24.952;2023-03-21T07:06:38;26.30;;;14.33;;
33553;SDS011;19885;42.208;24.952;2023-03-21T07:09:04;28.97;;;15.03;;
33553;SDS011;19885;42.208;24.952;2023-03-21T07:11:30;33.53;;;13.93;;
33553;SDS011;19885;42.208;24.952;2023-03-21T07:13:56;34.33;;;15.83;;
33553;SDS011;19885;42.208;24.952;2023-03-21T07:16:21;25.30;;;14.23;;
33553;SDS011;19885;42.208;24.952;2023-03-21T07:18:48;34.10;;;14.17;;
33553;SDS011;19885;42.208;24.952;2023-03-21T07:21:14;29.90;;;13.70;;
33553;SDS011;19885;42.208;24.952;2023-03-21T07:23:40;28.80;;;13.67;;
33553;SDS011;19885;42.208;24.952;2023-03-21T07:26:06;26.27;;;15.40;;
33553;SDS011;19885;42.208;24.952;2023-03-21T07:28:32;22.00;;;11.97;;
33553;SDS011;19885;42.208;24.952;2023-03-21T07:30:59;23.50;;;13.57;;
33553;SDS011;19885;42.208;24.952;2023-03-21T07:33:27;34.00;;;14.13;;
33553;SDS011;19885;42.208;24.952;2023-03-21T07:35:54;29.43;;;13.70;;
33553;SDS011;19885;42.208;24.952;2023-03-21T07:38:22;33.00;;;14.67;;
33553;SDS011;19885;42.208;24.952;2023-03-21T07:40:48;34.57;;;13.87;;
33553;SDS011;19885;42.208;24.952;2023-03-21T07:43:14;28.33;;;12.53;;
33553;SDS011;19885;42.208;24.952;2023-03-21T07:45:40;35.97;;;12.93;;
33553;SDS011;19885;42.208;24.952;2023-03-21T07:48:06;20.53;;;12.20;;
33553;SDS011;19885;42.208;24.952;2023-03-21T07:50:33;33.13;;;12.87;;
33553;SDS011;19885;42.208;24.952;2023-03-21T07:52:58;26.57;;;13.80;;
33553;SDS011;19885;42.208;24.952;2023-03-21T07:55:24;23.10;;;12.10;;
33553;SDS011;19885;42.208;24.952;2023-03-21T07:57:51;20.93;;;12.93;;
33553;SDS011;19885;42.208;24.952;2023-03-21T08:00:17;28.50;;;12.70;;
33553;SDS011;19885;42.208;24.952;2023-03-21T08:02:50;19.23;;;11.27;;
33553;SDS011;19885;42.208;24.952;2023-03-21T08:05:19;26.23;;;12.23;;
33553;SDS011;19885;42.208;24.952;2023-03-21T08:07:49;23.83;;;12.03;;
33553;SDS011;19885;42.208;24.952;2023-03-21T08:10:15;29.43;;;12.17;;
33553;SDS011;19885;42.208;24.952;2023-03-21T08:12:41;23.23;;;11.63;;
33553;SDS011;19885;42.208;24.952;2023-03-21T08:15:07;21.43;;;10.80;;
33553;SDS011;19885;42.208;24.952;2023-03-21T08:17:33;21.73;;;11.93;;
33553;SDS011;19885;42.208;24.952;2023-03-21T08:20:02;21.47;;;10.37;;
33553;SDS011;19885;42.208;24.952;2023-03-21T08:22:32;20.00;;;12.00;;
33553;SDS011;19885;42.208;24.952;2023-03-21T08:24:57;20.50;;;10.57;;
33553;SDS011;19885;42.208;24.952;2023-03-21T08:27:23;19.73;;;11.33;;
33553;SDS011;19885;42.208;24.952;2023-03-21T08:29:49;23.07;;;10.67;;
33553;SDS011;19885;42.208;24.952;2023-03-21T08:32:15;25.33;;;11.93;;
33553;SDS011;19885;42.208;24.952;2023-03-21T08:34:42;29.50;;;11.47;;
33553;SDS011;19885;42.208;24.952;2023-03-21T08:37:08;18.50;;;11.27;;
33553;SDS011;19885;42.208;24.952;2023-03-21T08:39:33;25.67;;;9.90;;
33553;SDS011;19885;42.208;24.952;2023-03-21T08:41:59;22.83;;;9.73;;
33553;SDS011;19885;42.208;24.952;2023-03-21T08:44:24;14.67;;;8.90;;
33553;SDS011;19885;42.208;24.952;2023-03-21T08:46:50;22.83;;;9.73;;
33553;SDS011;19885;42.208;24.952;2023-03-21T08:49:16;16.03;;;8.77;;
33553;SDS011;19885;42.208;24.952;2023-03-21T08:51:41;15.40;;;8.87;;
33553;SDS011;19885;42.208;24.952;2023-03-21T08:54:16;20.23;;;9.40;;
33553;SDS011;19885;42.208;24.952;2023-03-21T08:56:44;15.10;;;9.93;;
33553;SDS011;19885;42.208;24.952;2023-03-21T08:59:09;17.33;;;8.73;;
33553;SDS011;19885;42.208;24.952;2023-03-21T09:01:36;14.90;;;9.30;;
33553;SDS011;19885;42.208;24.952;2023-03-21T09:04:01;14.03;;;7.80;;
33553;SDS011;19885;42.208;24.952;2023-03-21T09:06:28;15.47;;;7.57;;
33553;SDS011;19885;42.208;24.952;2023-03-21T09:08:54;13.17;;;7.27;;
33553;SDS011;19885;42.208;24.952;2023-03-21T09:11:20;13.57;;;7.93;;
33553;SDS011;19885;42.208;24.952;2023-03-21T09:13:46;26.03;;;9.57;;
33553;SDS011;19885;42.208;24.952;2023-03-21T09:16:12;15.60;;;7.73;;
33553;SDS011;19885;42.208;24.952;2023-03-21T09:18:37;16.03;;;8.57;;
33553;SDS011;19885;42.208;24.952;2023-03-21T09:21:11;20.30;;;9.13;;
33553;SDS011;19885;42.208;24.952;2023-03-21T09:23:41;12.00;;;7.77;;
33553;SDS011;19885;42.208;24.952;2023-03-21T09:26:12;21.13;;;7.83;;
33553;SDS011;19885;42.208;24.952;2023-03-21T09:28:39;23.17;;;9.60;;
33553;SDS011;19885;42.208;24.952;2023-03-21T09:31:05;12.87;;;8.17;;
33553;SDS011;19885;42.208;24.952;2023-03-21T09:33:35;17.00;;;7.77;;
33553;SDS011;19885;42.208;24.952;2023-03-21T09:36:00;13.50;;;8.33;;
33553;SDS011;19885;42.208;24.952;2023-03-21T09:38:27;13.27;;;7.20;;
33553;SDS011;19885;42.208;24.952;2023-03-21T09:46:45;13.63;;;7.60;;
33553;SDS011;19885;42.208;24.952;2023-03-21T09:49:28;15.27;;;7.93;;
33553;SDS011;19885;42.208;24.952;2023-03-21T09:52:00;12.40;;;7.73;;
33553;SDS011;19885;42.208;24.952;2023-03-21T09:54:32;18.20;;;8.30;;
33553;SDS011;19885;42.208;24.952;2023-03-21T09:57:03;12.20;;;7.17;;
33553;SDS011;19885;42.208;24.952;2023-03-21T09:59:55;22.17;;;9.07;;
33553;SDS011;19885;42.208;24.952;2023-03-21T10:02:39;15.80;;;8.57;;
33553;SDS011;19885;42.208;24.952;2023-03-21T10:07:45;10.40;;;6.07;;
33553;SDS011;19885;42.208;24.952;2023-03-21T10:10:28;17.20;;;6.80;;
33553;SDS011;19885;42.208;24.952;2023-03-21T10:12:58;14.97;;;7.47;;
33553;SDS011;19885;42.208;24.952;2023-03-21T10:15:24;22.83;;;11.00;;
33553;SDS011;19885;42.208;24.952;2023-03-21T10:17:58;22.07;;;8.63;;
33553;SDS011;19885;42.208;24.952;2023-03-21T10:20:33;13.10;;;7.27;;
33553;SDS011;19885;42.208;24.952;2023-03-21T10:23:02;22.07;;;7.47;;
33553;SDS011;19885;42.208;24.952;2023-03-21T10:27:58;13.37;;;6.90;;
33553;SDS011;19885;42.208;24.952;2023-03-21T10:30:31;13.50;;;6.33;;
33553;SDS011;19885;42.208;24.952;2023-03-21T10:32:59;11.00;;;6.10;;
33553;SDS011;19885;42.208;24.952;2023-03-21T10:35:29;11.90;;;6.47;;
33553;SDS011;19885;42.208;24.952;2023-03-21T10:37:58;14.57;;;6.83;;
33553;SDS011;19885;42.208;24.952;2023-03-21T10:40:27;11.57;;;6.37;;
33553;SDS011;19885;42.208;24.952;2023-03-21T10:42:56;19.20;;;6.70;;
33553;SDS011;19885;42.208;24.952;2023-03-21T10:46:26;8.60;;;6.07;;
33553;SDS011;19885;42.208;24.952;2023-03-21T10:48:51;6.97;;;5.30;;
33553;SDS011;19885;42.208;24.952;2023-03-21T10:51:19;10.10;;;5.90;;
33553;SDS011;19885;42.208;24.952;2023-03-21T10:53:54;11.10;;;5.93;;
33553;SDS011;19885;42.208;24.952;2023-03-21T10:56:26;15.00;;;6.97;;
33553;SDS011;19885;42.208;24.952;2023-03-21T10:58:55;11.70;;;6.13;;
33553;SDS011;19885;42.208;24.952;2023-03-21T11:03:59;19.30;;;7.03;;
33553;SDS011;19885;42.208;24.952;2023-03-21T11:06:31;13.97;;;7.10;;
33553;SDS011;19885;42.208;24.952;2023-03-21T11:09:05;9.83;;;6.23;;
33553;SDS011;19885;42.208;24.952;2023-03-21T11:11:51;16.40;;;9.53;;
33553;SDS011;19885;42.208;24.952;2023-03-21T11:14:24;17.60;;;7.80;;
33553;SDS011;19885;42.208;24.952;2023-03-21T11:16:51;14.47;;;7.83;;
33553;SDS011;19885;42.208;24.952;2023-03-21T11:19:18;13.17;;;7.10;;
33553;SDS011;19885;42.208;24.952;2023-03-21T11:21:51;12.80;;;7.03;;
33553;SDS011;19885;42.208;24.952;2023-03-21T11:24:17;19.70;;;9.57;;
33553;SDS011;19885;42.208;24.952;2023-03-21T11:26:44;14.27;;;8.23;;
33553;SDS011;19885;42.208;24.952;2023-03-21T11:29:34;11.13;;;7.23;;
33553;SDS011;19885;42.208;24.952;2023-03-21T11:32:10;16.17;;;7.47;;
33553;SDS011;19885;42.208;24.952;2023-03-21T11:34:49;14.70;;;7.90;;
33553;SDS011;19885;42.208;24.952;2023-03-21T11:37:24;12.93;;;7.87;;
33553;SDS011;19885;42.208;24.952;2023-03-21T11:42:54;15.57;;;8.60;;
33553;SDS011;19885;42.208;24.952;2023-03-21T11:45:26;18.03;;;8.30;;
33553;SDS011;19885;42.208;24.952;2023-03-21T11:47:56;14.60;;;7.80;;
33553;SDS011;19885;42.208;24.952;2023-03-21T11:50:30;15.60;;;8.73;;
33553;SDS011;19885;42.208;24.952;2023-03-21T11:55:56;17.80;;;9.67;;
33553;SDS011;19885;42.208;24.952;2023-03-21T11:58:31;14.47;;;7.47;;
33553;SDS011;19885;42.208;24.952;2023-03-21T12:01:02;13.83;;;6.53;;
33553;SDS011;19885;42.208;24.952;2023-03-21T12:06:55;20.63;;;6.00;;
33553;SDS011;19885;42.208;24.952;2023-03-21T12:09:10;16.70;;;7.40;;
33553;SDS011;19885;42.208;24.952;2023-03-21T12:12:02;10.57;;;7.30;;
33553;SDS011;19885;42.208;24.952;2023-03-21T12:14:38;11.30;;;7.17;;
33553;SDS011;19885;42.208;24.952;2023-03-21T12:17:12;10.73;;;6.30;;
33553;SDS011;19885;42.208;24.952;2023-03-21T12:28:16;15.10;;;7.70;;
33553;SDS011;19885;42.208;24.952;2023-03-21T12:39:32;12.40;;;6.93;;
33553;SDS011;19885;42.208;24.952;2023-03-21T12:41:40;9.77;;;5.53;;
33553;SDS011;19885;42.208;24.952;2023-03-21T12:44:13;19.13;;;6.20;;
33553;SDS011;19885;42.208;24.952;2023-03-21T12:49:50;10.07;;;6.40;;
33553;SDS011;19885;42.208;24.952;2023-03-21T12:55:08;7.30;;;5.23;;
33553;SDS011;19885;42.208;24.952;2023-03-21T12:58:02;12.87;;;6.03;;
33553;SDS011;19885;42.208;24.952;2023-03-21T13:00:46;7.93;;;5.43;;
33553;SDS011;19885;42.208;24.952;2023-03-21T13:03:23;15.17;;;7.33;;
33553;SDS011;19885;42.208;24.952;2023-03-21T13:06:07;14.57;;;6.33;;
33553;SDS011;19885;42.208;24.952;2023-03-21T13:08:40;12.20;;;7.67;;
33553;SDS011;19885;42.208;24.952;2023-03-21T13:11:14;14.60;;;6.93;;
33553;SDS011;19885;42.208;24.952;2023-03-21T13:18:55;8.73;;;6.07;;
33553;SDS011;19885;42.208;24.952;2023-03-21T13:21:44;14.90;;;7.30;;
33553;SDS011;19885;42.208;24.952;2023-03-21T13:29:53;15.67;;;7.70;;
33553;SDS011;19885;42.208;24.952;2023-03-21T13:35:01;11.53;;;8.20;;
33553;SDS011;19885;42.208;24.952;2023-03-21T13:37:34;13.90;;;8.00;;
33553;SDS011;19885;42.208;24.952;2023-03-21T13:40:27;18.63;;;8.03;;
33553;SDS011;19885;42.208;24.952;2023-03-21T13:46:04;13.00;;;7.77;;
33553;SDS011;19885;42.208;24.952;2023-03-21T13:51:37;13.47;;;7.77;;
33553;SDS011;19885;42.208;24.952;2023-03-21T13:59:17;14.50;;;7.87;;
33553;SDS011;19885;42.208;24.952;2023-03-21T14:04:40;15.90;;;8.47;;
33553;SDS011;19885;42.208;24.952;2023-03-21T14:07:09;12.77;;;7.10;;
33553;SDS011;19885;42.208;24.952;2023-03-21T14:09:45;15.43;;;7.83;;
33553;SDS011;19885;42.208;24.952;2023-03-21T14:12:14;15.20;;;7.03;;
33553;SDS011;19885;42.208;24.952;2023-03-21T14:14:44;15.23;;;7.00;;
33553;SDS011;19885;42.208;24.952;2023-03-21T14:17:24;14.57;;;7.70;;
33553;SDS011;19885;42.208;24.952;2023-03-21T14:20:14;13.97;;;7.33;;
33553;SDS011;19885;42.208;24.952;2023-03-21T14:22:45;13.17;;;8.03;;
33553;SDS011;19885;42.208;24.952;2023-03-21T14:25:11;17.30;;;8.00;;
33553;SDS011;19885;42.208;24.952;2023-03-21T14:27:40;14.30;;;8.53;;
33553;SDS011;19885;42.208;24.952;2023-03-21T14:30:10;15.43;;;6.80;;
33553;SDS011;19885;42.208;24.952;2023-03-21T14:32:43;15.03;;;8.63;;
33553;SDS011;19885;42.208;24.952;2023-03-21T14:35:11;9.90;;;6.80;;
33553;SDS011;19885;42.208;24.952;2023-03-21T14:37:39;21.63;;;7.17;;
33553;SDS011;19885;42.208;24.952;2023-03-21T14:40:16;18.10;;;7.47;;
33553;SDS011;19885;42.208;24.952;2023-03-21T14:42:47;13.43;;;8.10;;
33553;SDS011;19885;42.208;24.952;2023-03-21T14:45:14;15.00;;;7.23;;
33553;SDS011;19885;42.208;24.952;2023-03-21T14:47:53;16.47;;;9.10;;
33553;SDS011;19885;42.208;24.952;2023-03-21T14:50:23;15.90;;;8.00;;
33553;SDS011;19885;42.208;24.952;2023-03-21T14:52:55;20.00;;;7.97;;
33553;SDS011;19885;42.208;24.952;2023-03-21T14:55:22;12.40;;;7.63;;
33553;SDS011;19885;42.208;24.952;2023-03-21T14:57:48;14.53;;;8.67;;
33553;SDS011;19885;42.208;24.952;2023-03-21T15:00:16;16.57;;;9.47;;
33553;SDS011;19885;42.208;24.952;2023-03-21T15:02:47;23.13;;;9.07;;
33553;SDS011;19885;42.208;24.952;2023-03-21T15:07:51;15.60;;;8.20;;
33553;SDS011;19885;42.208;24.952;2023-03-21T15:10:23;17.03;;;10.17;;
33553;SDS011;19885;42.208;24.952;2023-03-21T15:12:54;21.27;;;9.10;;
33553;SDS011;19885;42.208;24.952;2023-03-21T15:15:23;13.97;;;7.93;;
33553;SDS011;19885;42.208;24.952;2023-03-21T15:17:50;19.63;;;8.73;;
33553;SDS011;19885;42.208;24.952;2023-03-21T15:20:18;24.43;;;8.03;;
33553;SDS011;19885;42.208;24.952;2023-03-21T15:22:55;13.13;;;7.87;;
33553;SDS011;19885;42.208;24.952;2023-03-21T15:25:27;11.73;;;8.20;;
33553;SDS011;19885;42.208;24.952;2023-03-21T15:27:55;46.30;;;20.50;;
33553;SDS011;19885;42.208;24.952;2023-03-21T15:30:24;254.53;;;91.13;;
33553;SDS011;19885;42.208;24.952;2023-03-21T15:32:52;181.63;;;86.50;;
33553;SDS011;19885;42.208;24.952;2023-03-21T15:43:46;35.57;;;23.13;;
33553;SDS011;19885;42.208;24.952;2023-03-21T15:46:14;36.80;;;20.87;;
33553;SDS011;19885;42.208;24.952;2023-03-21T15:48:41;35.73;;;18.43;;
33553;SDS011;19885;42.208;24.952;2023-03-21T15:51:09;29.83;;;13.10;;
33553;SDS011;19885;42.208;24.952;2023-03-21T15:53:40;25.30;;;13.97;;
33553;SDS011;19885;42.208;24.952;2023-03-21T15:56:08;35.63;;;15.87;;
33553;SDS011;19885;42.208;24.952;2023-03-21T15:58:41;22.93;;;10.50;;
33553;SDS011;19885;42.208;24.952;2023-03-21T16:01:19;19.47;;;7.53;;
33553;SDS011;19885;42.208;24.952;2023-03-21T16:03:47;21.00;;;7.17;;
33553;SDS011;19885;42.208;24.952;2023-03-21T16:09:28;17.07;;;8.80;;
33553;SDS011;19885;42.208;24.952;2023-03-21T16:11:50;31.90;;;10.70;;
33553;SDS011;19885;42.208;24.952;2023-03-21T16:14:21;22.40;;;11.03;;
33553;SDS011;19885;42.208;24.952;2023-03-21T16:16:47;21.03;;;11.20;;
33553;SDS011;19885;42.208;24.952;2023-03-21T16:19:13;16.10;;;10.70;;
33553;SDS011;19885;42.208;24.952;2023-03-21T16:21:39;19.90;;;9.50;;
33553;SDS011;19885;42.208;24.952;2023-03-21T16:24:06;30.00;;;10.27;;
33553;SDS011;19885;42.208;24.952;2023-03-21T16:26:34;37.33;;;15.03;;
33553;SDS011;19885;42.208;24.952;2023-03-21T16:29:02;45.27;;;17.10;;
33553;SDS011;19885;42.208;24.952;2023-03-21T16:31:33;37.73;;;18.30;;
33553;SDS011;19885;42.208;24.952;2023-03-21T16:34:01;41.20;;;18.27;;
33553;SDS011;19885;42.208;24.952;2023-03-21T16:36:31;37.03;;;16.13;;